Time;durP1;ratioP1;P1;durP2;ratioP2;P2;SDS_P1;SDS_P2;PMS_P1;PMS_P2;Temp;Humidity;BMP_temperature;BMP_pressure;BME280_temperature;BME280_humidity;BME280_pressure;Samples;Min_cycle;Max_cycle;Signal;HPM_P1;HPM_P2
2023/07/22 00:01:32;;;;;;;6.53;3.77;;;;;;;15.91;100.00;99979.88;5038705;28;20229;-67
2023/07/22 00:03:58;;;;;;;4.07;3.60;;;;;;;15.88;100.00;99981.91;5045847;28;20201;-66
2023/07/22 00:06:23;;;;;;;4.57;3.53;;;;;;;15.88;100.00;99977.53;5033077;28;20204;-67
2023/07/22 00:08:49;;;;;;;4.37;3.57;;;;;;;15.90;100.00;99977.41;5042597;28;20584;-67
2023/07/22 00:11:15;;;;;;;4.10;3.70;;;;;;;15.78;100.00;99982.59;5036679;28;20225;-66
2023/07/22 00:13:40;;;;;;;4.00;3.70;;;;;;;15.80;100.00;99978.13;5044711;28;20270;-65
2023/07/22 00:16:07;;;;;;;4.00;3.60;;;;;;;15.75;100.00;99974.22;5033430;28;20210;-65
2023/07/22 00:18:33;;;;;;;6.20;4.10;;;;;;;15.75;100.00;99976.81;5041609;28;20305;-67
2023/07/22 00:20:59;;;;;;;6.40;4.47;;;;;;;15.78;100.00;99967.03;5041225;28;20228;-65
2023/07/22 00:23:25;;;;;;;6.83;4.57;;;;;;;15.72;100.00;99971.88;5043403;28;20188;-67
2023/07/22 00:25:51;;;;;;;4.27;3.90;;;;;;;15.68;100.00;99975.66;5043379;28;20261;-66
2023/07/22 00:28:16;;;;;;;3.97;3.50;;;;;;;15.67;100.00;99984.41;5040010;28;20186;-64
2023/07/22 00:30:42;;;;;;;5.57;4.60;;;;;;;15.65;100.00;99980.16;5042404;28;20277;-65
2023/07/22 00:33:08;;;;;;;4.80;3.93;;;;;;;15.66;100.00;99975.78;5043551;28;20177;-66
2023/07/22 00:35:33;;;;;;;4.77;4.27;;;;;;;15.51;100.00;99982.97;5041329;28;20583;-66
2023/07/22 00:38:00;;;;;;;3.70;3.40;;;;;;;15.48;100.00;99978.03;5046632;28;20233;-66
2023/07/22 00:40:25;;;;;;;4.10;3.70;;;;;;;15.45;100.00;99975.66;5041339;28;20224;-65
2023/07/22 00:42:50;;;;;;;4.40;4.00;;;;;;;15.52;100.00;99979.44;5051870;28;20216;-69
2023/07/22 00:45:16;;;;;;;4.40;3.63;;;;;;;15.56;100.00;99975.66;5046417;28;20312;-68
2023/07/22 00:47:42;;;;;;;4.20;3.80;;;;;;;15.33;100.00;99974.84;5038343;28;20209;-68
2023/07/22 00:50:07;;;;;;;7.53;3.50;;;;;;;15.39;100.00;99978.72;5036082;28;20185;-67
2023/07/22 00:52:34;;;;;;;5.57;3.40;;;;;;;15.38;100.00;99982.25;5056088;28;20215;-68
2023/07/22 00:54:59;;;;;;;3.87;3.57;;;;;;;15.31;100.00;99981.91;5047456;28;20230;-70
2023/07/22 00:57:25;;;;;;;4.63;3.50;;;;;;;15.39;100.00;99979.53;5050543;28;20204;-68
2023/07/22 00:59:50;;;;;;;4.90;3.53;;;;;;;15.41;100.00;99980.25;5049999;28;20313;-68
2023/07/22 01:02:17;;;;;;;5.30;3.77;;;;;;;15.46;100.00;99972.13;5052924;28;20644;-68
2023/07/22 01:04:42;;;;;;;4.77;3.93;;;;;;;15.41;100.00;99975.09;5050722;28;20205;-68
2023/07/22 01:10:30;;;;;;;3.83;3.53;;;;;;;15.31;100.00;99977.53;5035874;28;20329;-69
2023/07/22 01:12:56;;;;;;;5.77;3.53;;;;;;;15.29;100.00;99973.44;5056526;28;20177;-68
2023/07/22 01:15:22;;;;;;;3.27;3.00;;;;;;;15.20;100.00;99976.72;5050680;28;20222;-68
2023/07/22 01:17:47;;;;;;;4.50;3.67;;;;;;;15.16;100.00;99976.94;5051175;28;20201;-69
2023/07/22 01:20:13;;;;;;;4.07;3.57;;;;;;;15.18;100.00;99979.41;5041026;28;20185;-70
2023/07/22 01:22:39;;;;;;;5.73;3.63;;;;;;;15.13;100.00;99971.19;5058308;28;20234;-69
2023/07/22 01:25:05;;;;;;;4.00;3.70;;;;;;;15.07;100.00;99980.25;5050690;28;20204;-69
2023/07/22 01:27:32;;;;;;;5.33;3.60;;;;;;;14.95;100.00;99970.81;5050955;28;20200;-69
2023/07/22 01:29:57;;;;;;;4.37;3.97;;;;;;;14.70;100.00;99977.81;5051969;28;20612;-69
2023/07/22 01:32:23;;;;;;;7.27;4.07;;;;;;;14.73;100.00;99972.41;5049521;28;20221;-68
2023/07/22 01:34:48;;;;;;;3.73;3.43;;;;;;;14.59;100.00;99972.59;5040136;28;20173;-68
2023/07/22 01:37:13;;;;;;;4.63;4.00;;;;;;;14.55;100.00;99974.56;5055011;28;20201;-68
2023/07/22 01:39:38;;;;;;;6.97;4.33;;;;;;;14.43;100.00;99971.09;5053428;28;20177;-68
2023/07/22 01:42:04;;;;;;;4.40;4.00;;;;;;;14.40;100.00;99968.75;5059933;28;20395;-69
2023/07/22 01:44:29;;;;;;;6.17;3.77;;;;;;;14.32;100.00;99974.47;5054090;28;20617;-69
2023/07/22 01:46:55;;;;;;;4.17;3.87;;;;;;;14.22;100.00;99980.44;5054944;28;20645;-69
2023/07/22 01:49:20;;;;;;;4.30;4.00;;;;;;;14.24;100.00;99979.38;5054914;28;20182;-69
2023/07/22 01:51:45;;;;;;;9.37;3.80;;;;;;;14.22;100.00;99978.66;5046258;28;20222;-68
2023/07/22 01:54:12;;;;;;;4.47;4.17;;;;;;;14.13;100.00;99972.38;5050928;28;20181;-68
2023/07/22 01:56:38;;;;;;;4.90;4.40;;;;;;;14.04;100.00;99979.03;5039930;28;20185;-68
2023/07/22 01:59:03;;;;;;;7.90;3.97;;;;;;;14.06;100.00;99978.91;5053234;28;20235;-69
2023/07/22 02:01:29;;;;;;;6.53;3.97;;;;;;;14.00;100.00;99974.19;5044067;28;20248;-68
2023/07/22 02:03:55;;;;;;;5.93;4.00;;;;;;;13.93;100.00;99972.97;5054525;28;20181;-69
2023/07/22 02:06:20;;;;;;;5.40;4.07;;;;;;;13.85;100.00;99974.34;5052518;28;20633;-69
2023/07/22 02:08:45;;;;;;;5.67;4.33;;;;;;;13.83;100.00;99978.78;5054405;28;20304;-68
2023/07/22 02:11:11;;;;;;;5.20;4.70;;;;;;;13.72;100.00;99983.88;5053199;28;20220;-69
2023/07/22 02:13:37;;;;;;;5.07;4.57;;;;;;;13.60;100.00;99984.75;5052405;28;20213;-69
2023/07/22 02:16:03;;;;;;;4.60;4.23;;;;;;;13.55;100.00;99985.88;5059267;28;20185;-69
2023/07/22 02:18:28;;;;;;;4.27;3.87;;;;;;;13.59;100.00;99983.91;5053956;28;20292;-69
2023/07/22 02:20:54;;;;;;;4.87;4.47;;;;;;;13.54;100.00;99980.81;5050821;28;20671;-68
2023/07/22 02:23:20;;;;;;;4.80;4.40;;;;;;;13.50;100.00;99987.94;5061847;28;20260;-68
2023/07/22 02:25:52;;;;;;;5.03;4.40;;;;;;;13.42;100.00;99982.50;5053639;28;20183;-67
2023/07/22 02:28:21;;;;;;;5.07;4.57;;;;;;;13.42;100.00;99985.06;5053937;28;20318;-68
2023/07/22 02:30:47;;;;;;;5.83;4.27;;;;;;;13.24;100.00;99987.09;5049495;28;20236;-68
2023/07/22 02:33:13;;;;;;;5.50;5.00;;;;;;;13.31;100.00;99985.78;5062772;28;20193;-68
2023/07/22 02:35:38;;;;;;;5.17;4.67;;;;;;;13.35;100.00;99983.81;5053596;28;20181;-68
2023/07/22 02:38:04;;;;;;;5.67;5.17;;;;;;;13.33;100.00;99989.06;5051950;28;20205;-69
2023/07/22 02:40:29;;;;;;;6.10;5.50;;;;;;;13.30;100.00;99984.09;5046592;28;20343;-69
2023/07/22 02:42:54;;;;;;;5.23;4.73;;;;;;;13.23;100.00;99988.88;5053825;28;20204;-68
2023/07/22 02:45:19;;;;;;;7.50;5.10;;;;;;;13.19;100.00;99989.19;5053538;28;20237;-69
2023/07/22 02:47:45;;;;;;;6.57;5.50;;;;;;;13.23;100.00;99982.88;5047115;28;20182;-68
2023/07/22 02:50:10;;;;;;;5.73;5.23;;;;;;;13.19;100.00;99987.41;5037216;28;20173;-69
2023/07/22 02:52:36;;;;;;;6.13;4.93;;;;;;;13.28;100.00;99990.31;5066770;28;20173;-68
2023/07/22 02:55:18;;;;;;;5.73;5.17;;;;;;;13.17;100.00;99983.28;5053179;28;20181;-68
2023/07/22 02:57:44;;;;;;;7.30;5.10;;;;;;;13.07;100.00;99978.75;5041778;28;20350;-68
2023/07/22 03:00:13;;;;;;;6.33;5.73;;;;;;;13.16;100.00;99984.22;5033076;28;20186;-68
2023/07/22 03:02:39;;;;;;;4.90;4.50;;;;;;;13.08;100.00;99989.88;5052686;28;20229;-68
2023/07/22 03:05:07;;;;;;;4.87;4.47;;;;;;;13.02;100.00;99987.72;5052722;28;20181;-68
2023/07/22 03:07:34;;;;;;;4.80;4.40;;;;;;;12.97;100.00;99994.94;5052102;28;20182;-68
2023/07/22 03:09:59;;;;;;;6.17;4.40;;;;;;;12.91;100.00;99991.00;5052069;28;20180;-69
2023/07/22 03:12:24;;;;;;;6.30;5.13;;;;;;;12.81;100.00;99993.38;5057976;28;20229;-68
2023/07/22 03:14:50;;;;;;;6.20;5.00;;;;;;;12.81;100.00;99998.53;5051158;28;20233;-68
2023/07/22 03:17:16;;;;;;;6.33;5.37;;;;;;;12.72;100.00;99992.22;5058043;28;20242;-68
2023/07/22 03:19:42;;;;;;;7.47;5.00;;;;;;;12.52;100.00;99997.84;5053047;28;20177;-68
2023/07/22 03:22:07;;;;;;;5.93;5.33;;;;;;;12.57;100.00;100001.78;5057890;28;20235;-68
2023/07/22 03:24:32;;;;;;;5.67;5.23;;;;;;;12.43;100.00;99989.78;5052502;28;20264;-69
2023/07/22 03:26:58;;;;;;;6.00;5.00;;;;;;;12.58;100.00;99987.16;5053477;28;20181;-69
2023/07/22 03:29:24;;;;;;;5.33;4.93;;;;;;;12.66;100.00;99987.44;5052855;28;20266;-66
2023/07/22 03:31:49;;;;;;;5.30;4.80;;;;;;;12.73;100.00;99993.06;5001557;28;20230;-65
2023/07/22 03:34:15;;;;;;;5.40;4.90;;;;;;;12.62;100.00;99996.31;5046791;28;20208;-66
2023/07/22 03:36:40;;;;;;;5.40;4.90;;;;;;;12.62;100.00;99988.59;5052554;28;20269;-66
2023/07/22 03:39:06;;;;;;;5.33;4.83;;;;;;;12.69;100.00;99992.44;5052644;28;20505;-65
2023/07/22 03:41:31;;;;;;;5.27;4.40;;;;;;;12.63;100.00;99991.97;5053531;28;20224;-65
2023/07/22 03:43:56;;;;;;;5.30;4.80;;;;;;;12.71;100.00;99989.75;5056724;28;20227;-65
2023/07/22 03:46:21;;;;;;;6.10;5.00;;;;;;;12.81;100.00;99988.19;5052119;28;20637;-65
2023/07/22 03:48:46;;;;;;;5.77;5.27;;;;;;;12.77;100.00;99991.91;5052588;28;20184;-66
2023/07/22 03:51:12;;;;;;;5.40;4.90;;;;;;;12.86;100.00;99988.75;5049900;28;20232;-65
2023/07/22 03:53:37;;;;;;;4.97;4.53;;;;;;;12.87;100.00;99990.38;5057517;28;20177;-66
2023/07/22 03:56:02;;;;;;;6.20;4.67;;;;;;;12.63;100.00;99998.00;5052008;28;20212;-65
2023/07/22 03:58:28;;;;;;;5.20;4.63;;;;;;;12.48;100.00;99998.97;5052181;28;20204;-65
2023/07/22 04:00:53;;;;;;;5.67;4.63;;;;;;;12.34;100.00;99995.53;5044129;28;20675;-64
2023/07/22 04:03:18;;;;;;;5.37;4.97;;;;;;;12.37;100.00;99997.09;5060096;28;20181;-63
2023/07/22 04:05:43;;;;;;;5.37;4.87;;;;;;;12.51;100.00;99996.19;5051793;28;20169;-64
2023/07/22 04:08:09;;;;;;;5.87;5.13;;;;;;;12.75;100.00;99993.75;5052616;28;20223;-64
2023/07/22 04:10:34;;;;;;;5.30;4.77;;;;;;;12.80;100.00;99998.63;5046018;28;20303;-64
2023/07/22 04:12:59;;;;;;;6.73;5.13;;;;;;;13.03;100.00;99992.78;5061707;28;20188;-64
2023/07/22 04:15:24;;;;;;;5.67;5.17;;;;;;;13.06;100.00;99992.59;5051745;28;20177;-64
2023/07/22 04:17:50;;;;;;;5.30;4.90;;;;;;;13.12;100.00;99988.75;5052006;28;20205;-64
2023/07/22 04:20:15;;;;;;;8.13;5.20;;;;;;;12.99;100.00;99993.91;5043201;28;20200;-64
2023/07/22 04:22:41;;;;;;;5.20;4.70;;;;;;;12.96;100.00;99985.53;5049133;28;20608;-65
2023/07/22 04:25:07;;;;;;;6.30;5.13;;;;;;;13.06;100.00;99989.16;5051627;28;20307;-64
2023/07/22 04:27:32;;;;;;;5.90;5.30;;;;;;;13.12;100.00;99991.34;5049438;28;20701;-64
2023/07/22 04:29:57;;;;;;;7.90;5.20;;;;;;;13.01;100.00;99994.66;5051459;28;20174;-65
2023/07/22 04:32:23;;;;;;;6.00;5.40;;;;;;;13.10;100.00;99993.22;5054744;28;20225;-65
2023/07/22 04:34:48;;;;;;;4.87;4.47;;;;;;;13.16;100.00;99997.13;5049607;28;20200;-65
2023/07/22 04:37:13;;;;;;;4.97;4.57;;;;;;;13.34;100.00;100000.22;5051632;28;20185;-65
2023/07/22 04:39:39;;;;;;;5.73;5.10;;;;;;;13.47;100.00;100001.09;5051669;28;20186;-65
2023/07/22 04:42:04;;;;;;;6.00;5.37;;;;;;;13.44;100.00;100006.44;5056802;28;20238;-65
2023/07/22 04:44:30;;;;;;;7.13;5.13;;;;;;;13.60;100.00;100005.41;5050894;28;20213;-65
2023/07/22 04:46:55;;;;;;;5.37;4.87;;;;;;;13.56;100.00;100004.78;5051719;28;20211;-65
2023/07/22 04:49:21;;;;;;;5.83;5.33;;;;;;;13.60;100.00;100011.41;5051329;28;20692;-65
2023/07/22 04:51:47;;;;;;;5.33;4.80;;;;;;;13.83;100.00;100003.81;5054709;28;20229;-66
2023/07/22 04:54:12;;;;;;;5.37;4.97;;;;;;;14.03;100.00;99994.66;5052513;28;20200;-65
2023/07/22 04:56:38;;;;;;;6.07;5.03;;;;;;;14.18;100.00;99997.91;5051391;28;20671;-65
2023/07/22 04:59:04;;;;;;;5.27;4.77;;;;;;;14.30;100.00;99993.63;5051294;28;20250;-65
2023/07/22 05:01:29;;;;;;;5.53;5.07;;;;;;;14.51;100.00;99991.22;5042770;28;20278;-65
2023/07/22 05:03:55;;;;;;;5.23;4.73;;;;;;;14.48;100.00;99987.09;5041717;28;20602;-65
2023/07/22 05:06:20;;;;;;;6.00;5.50;;;;;;;14.59;100.00;99982.94;5050691;28;20185;-66
2023/07/22 05:08:45;;;;;;;9.37;5.03;;;;;;;14.64;100.00;99993.78;5050081;28;20181;-65
2023/07/22 05:11:11;;;;;;;6.20;5.27;;;;;;;14.72;100.00;99983.69;5050441;28;20237;-65
2023/07/22 05:13:36;;;;;;;6.83;5.50;;;;;;;14.57;100.00;99984.78;5056890;28;20244;-66
2023/07/22 05:16:01;;;;;;;5.83;5.30;;;;;;;14.80;100.00;99990.91;5050959;28;20333;-66
2023/07/22 05:18:26;;;;;;;6.50;5.90;;;;;;;15.01;100.00;99991.88;5050924;28;20279;-65
2023/07/22 05:20:52;;;;;;;5.23;4.73;;;;;;;15.04;100.00;99990.00;5047500;28;20231;-66
2023/07/22 05:23:17;;;;;;;5.87;5.10;;;;;;;15.09;100.00;99993.09;5059682;28;20182;-66
2023/07/22 05:25:42;;;;;;;6.00;5.50;;;;;;;15.13;100.00;99997.09;5050833;28;20170;-65
2023/07/22 05:28:07;;;;;;;6.00;5.40;;;;;;;15.43;100.00;99993.94;5051037;28;20624;-66
2023/07/22 05:30:33;;;;;;;8.80;5.30;;;;;;;15.62;100.00;99992.53;5043419;28;20239;-65
2023/07/22 05:32:58;;;;;;;8.03;5.53;;;;;;;15.81;100.00;99997.94;5061085;28;20207;-64
2023/07/22 05:35:23;;;;;;;6.47;5.90;;;;;;;15.77;100.00;100003.47;5050738;28;20533;-64
2023/07/22 05:37:49;;;;;;;7.93;5.57;;;;;;;15.72;100.00;99998.63;5050988;28;20210;-65
2023/07/22 05:40:14;;;;;;;5.80;5.20;;;;;;;15.87;100.00;100012.19;5042459;28;20250;-65
2023/07/22 05:42:41;;;;;;;6.00;5.20;;;;;;;15.63;100.00;100007.94;5049413;28;20708;-65
2023/07/22 05:45:07;;;;;;;5.60;5.03;;;;;;;15.86;100.00;100009.72;5050590;28;20188;-66
2023/07/22 05:47:32;;;;;;;5.50;5.00;;;;;;;16.25;100.00;100005.75;5050761;28;20219;-65
2023/07/22 05:49:57;;;;;;;5.37;4.77;;;;;;;16.61;100.00;100011.53;5050805;28;20590;-64
2023/07/22 05:52:23;;;;;;;5.27;4.87;;;;;;;16.69;100.00;100008.28;5057192;28;20768;-64
2023/07/22 05:54:48;;;;;;;5.77;4.83;;;;;;;16.72;100.00;100004.63;5054273;28;20210;-64
2023/07/22 05:57:14;;;;;;;5.63;4.53;;;;;;;17.06;100.00;100009.66;5050830;28;20180;-66
2023/07/22 05:59:40;;;;;;;6.20;5.60;;;;;;;17.20;100.00;100005.91;5050962;28;20190;-64
2023/07/22 06:02:06;;;;;;;5.57;5.00;;;;;;;17.09;100.00;100004.19;5056113;28;20271;-64
2023/07/22 06:04:31;;;;;;;5.63;5.07;;;;;;;17.70;100.00;100019.00;5050211;28;20189;-64
2023/07/22 06:06:57;;;;;;;6.73;4.80;;;;;;;18.18;100.00;100011.44;5050385;28;20519;-65
2023/07/22 06:09:23;;;;;;;5.07;4.67;;;;;;;18.69;100.00;100017.34;5050995;28;20257;-65
2023/07/22 06:11:48;;;;;;;4.83;4.43;;;;;;;18.83;100.00;100013.50;5053900;28;20219;-65
2023/07/22 06:14:13;;;;;;;5.43;4.50;;;;;;;18.92;100.00;100017.91;5052385;28;20233;-65
2023/07/22 06:16:38;;;;;;;5.10;4.70;;;;;;;19.12;100.00;100010.06;5052268;28;20540;-65
2023/07/22 06:19:04;;;;;;;4.97;4.50;;;;;;;19.48;100.00;100003.19;5054159;28;20657;-66
2023/07/22 06:21:29;;;;;;;6.80;4.90;;;;;;;19.14;100.00;100014.16;5045099;28;20217;-65
2023/07/22 06:23:55;;;;;;;5.30;4.80;;;;;;;18.84;100.00;100015.13;5058187;28;20656;-65
2023/07/22 06:26:20;;;;;;;4.97;4.43;;;;;;;19.47;100.00;100013.75;5053500;28;20193;-65
2023/07/22 06:28:45;;;;;;;6.17;4.33;;;;;;;19.68;100.00;100026.56;5052786;28;20272;-65
2023/07/22 06:31:10;;;;;;;4.70;4.30;;;;;;;19.07;100.00;100020.91;5049796;28;20631;-65
2023/07/22 06:33:36;;;;;;;4.83;4.37;;;;;;;19.00;100.00;100022.41;5058740;28;20197;-64
2023/07/22 06:36:01;;;;;;;5.13;4.63;;;;;;;19.01;100.00;100021.47;5051789;28;20706;-65
2023/07/22 06:38:26;;;;;;;4.80;4.07;;;;;;;18.83;100.00;100034.38;5053772;28;20227;-65
2023/07/22 06:40:53;;;;;;;4.87;4.40;;;;;;;19.21;100.00;100029.22;5041909;28;20221;-65
2023/07/22 06:43:18;;;;;;;5.80;4.60;;;;;;;19.27;100.00;100036.50;5040396;28;20193;-66
2023/07/22 06:45:43;;;;;;;4.93;4.43;;;;;;;19.63;100.00;100037.44;5042409;28;20230;-67
2023/07/22 06:48:08;;;;;;;5.40;4.90;;;;;;;19.89;98.11;100038.59;5054042;28;20189;-67
2023/07/22 06:50:34;;;;;;;7.17;4.87;;;;;;;19.76;98.25;100037.13;5048000;28;20630;-67
2023/07/22 06:52:59;;;;;;;7.13;4.50;;;;;;;19.23;100.00;100035.94;5064853;28;20240;-67
2023/07/22 06:55:24;;;;;;;5.10;4.60;;;;;;;19.45;100.00;100037.38;5052976;28;20188;-67
2023/07/22 06:57:49;;;;;;;4.70;4.30;;;;;;;19.34;100.00;100030.56;5053779;28;20687;-66
2023/07/22 07:00:15;;;;;;;5.50;5.00;;;;;;;19.05;100.00;100035.03;5033173;28;20217;-66
2023/07/22 07:02:41;;;;;;;9.23;4.60;;;;;;;19.22;100.00;100034.31;5067055;28;20190;-66
2023/07/22 07:05:06;;;;;;;5.50;5.00;;;;;;;19.75;100.00;100039.88;5051406;28;20185;-66
2023/07/22 07:07:32;;;;;;;5.93;4.40;;;;;;;20.67;94.60;100034.63;5053610;28;20258;-66
2023/07/22 07:09:57;;;;;;;5.37;4.90;;;;;;;20.93;90.90;100027.66;5053335;28;20196;-65
2023/07/22 07:12:23;;;;;;;7.20;4.67;;;;;;;21.09;89.44;100033.97;5040569;28;20329;-66
2023/07/22 07:14:50;;;;;;;7.33;4.90;;;;;;;21.20;88.88;100028.47;5051215;28;20224;-66
2023/07/22 07:17:15;;;;;;;5.67;4.63;;;;;;;20.90;91.02;100033.19;5055069;28;20225;-66
2023/07/22 07:19:40;;;;;;;5.13;4.63;;;;;;;21.52;88.31;100034.88;5044622;28;20197;-65
2023/07/22 07:22:06;;;;;;;5.73;3.97;;;;;;;21.72;89.13;100035.47;5038216;28;20227;-65
2023/07/22 07:24:31;;;;;;;4.93;4.47;;;;;;;21.65;85.48;100037.06;5040678;28;20184;-65
2023/07/22 07:26:56;;;;;;;6.47;4.27;;;;;;;20.83;91.46;100036.59;5036091;28;20213;-67
2023/07/22 07:29:22;;;;;;;6.73;5.00;;;;;;;21.67;87.52;100036.91;5042881;28;20208;-65
2023/07/22 07:31:47;;;;;;;5.63;4.87;;;;;;;21.55;88.72;100042.38;5022320;28;20314;-66
2023/07/22 07:34:12;;;;;;;5.60;5.03;;;;;;;21.88;81.24;100039.94;5037533;28;20218;-67
2023/07/22 07:36:37;;;;;;;4.77;4.17;;;;;;;21.81;81.42;100038.94;5053005;28;20194;-76
2023/07/22 07:39:03;;;;;;;4.73;4.33;;;;;;;22.02;78.58;100045.53;5051439;28;20217;-78
2023/07/22 07:41:28;;;;;;;6.93;4.77;;;;;;;22.30;76.32;100042.63;5045060;28;20229;-77
2023/07/22 07:43:54;;;;;;;5.33;4.83;;;;;;;22.82;72.52;100039.75;5046151;28;20216;-77
2023/07/22 07:46:25;;;;;;;6.50;4.80;;;;;;;23.73;65.03;100034.28;5049639;28;20284;-77
2023/07/22 07:48:59;;;;;;;4.77;4.37;;;;;;;23.57;64.29;100045.66;5050863;28;20529;-78
2023/07/22 07:51:26;;;;;;;4.67;4.27;;;;;;;24.89;56.48;100041.41;5052913;28;20232;-76
2023/07/22 07:53:52;;;;;;;4.60;4.25;;;;;;;26.45;48.70;100040.50;5037860;28;20284;-77
2023/07/22 07:56:18;;;;;;;7.05;4.60;;;;;;;27.50;43.77;100037.97;5050539;28;20185;-76
2023/07/22 07:58:45;;;;;;;5.22;3.95;;;;;;;28.63;42.14;100044.56;5052159;28;20199;-78
2023/07/22 08:01:10;;;;;;;4.13;3.75;;;;;;;30.07;37.67;100052.53;5050764;28;20237;-76
2023/07/22 08:03:36;;;;;;;4.88;3.75;;;;;;;30.20;37.16;100051.63;5050517;28;20189;-77
2023/07/22 08:06:02;;;;;;;3.47;3.20;;;;;;;30.63;35.44;100058.06;5052052;28;20180;-78
2023/07/22 08:08:28;;;;;;;6.72;3.47;;;;;;;28.72;36.70;100055.78;5052271;28;20173;-78
2023/07/22 08:11:11;;;;;;;3.80;3.50;;;;;;;27.72;41.77;100053.72;5043926;28;20267;-76
2023/07/22 08:13:37;;;;;;;4.55;3.65;;;;;;;27.41;41.21;100049.75;5050154;28;20217;-77
2023/07/22 08:16:05;;;;;;;6.45;3.10;;;;;;;26.32;46.86;100060.47;5051641;28;20290;-76
2023/07/22 08:18:31;;;;;;;3.67;3.38;;;;;;;26.45;47.72;100057.13;5051701;28;20239;-76
2023/07/22 08:20:57;;;;;;;3.92;3.53;;;;;;;27.86;43.93;100058.88;5041656;28;20315;-77
2023/07/22 08:23:22;;;;;;;4.60;3.80;;;;;;;29.50;38.44;100052.38;5046799;28;20181;-76
2023/07/22 08:25:48;;;;;;;5.47;3.17;;;;;;;30.87;35.42;100051.13;5050065;28;20177;-75
2023/07/22 08:28:14;;;;;;;4.15;2.58;;;;;;;31.59;34.20;100052.38;5038507;28;20273;-77
2023/07/22 08:30:40;;;;;;;3.22;2.90;;;;;;;32.55;31.64;100053.50;5046688;28;20628;-77
2023/07/22 08:33:09;;;;;;;4.30;2.70;;;;;;;30.89;33.79;100048.25;5061425;28;20181;-77
2023/07/22 08:35:36;;;;;;;3.72;2.97;;;;;;;31.54;33.74;100046.94;5050060;28;20181;-77
2023/07/22 08:38:02;;;;;;;3.00;2.70;;;;;;;30.42;33.62;100057.38;5051190;28;20283;-76
2023/07/22 08:40:33;;;;;;;3.67;2.78;;;;;;;30.99;33.33;100053.06;5043042;28;20315;-76
2023/07/22 08:42:59;;;;;;;3.40;2.80;;;;;;;29.81;34.55;100050.00;5049666;28;20239;-77
2023/07/22 08:45:29;;;;;;;3.78;2.70;;;;;;;28.16;37.51;100044.53;5051328;28;20185;-76
2023/07/22 08:47:58;;;;;;;3.95;2.60;;;;;;;29.01;36.86;100053.72;5039399;28;20536;-77
2023/07/22 08:50:29;;;;;;;4.20;3.25;;;;;;;27.27;40.04;100051.47;5041835;28;20236;-76
2023/07/22 08:52:55;;;;;;;5.43;2.70;;;;;;;27.52;40.38;100043.91;5062842;28;20272;-76
2023/07/22 08:55:20;;;;;;;4.47;3.05;;;;;;;28.01;39.78;100036.75;5048265;28;20264;-76
2023/07/22 08:57:48;;;;;;;3.03;2.67;;;;;;;28.32;38.42;100036.22;5039412;28;20691;-76
2023/07/22 09:00:14;;;;;;;3.47;3.17;;;;;;;29.15;35.12;100036.78;5042186;28;20189;-78
2023/07/22 09:02:40;;;;;;;3.60;3.17;;;;;;;26.65;40.00;100040.66;5065300;28;20612;-76
2023/07/22 09:05:06;;;;;;;3.28;3.00;;;;;;;25.86;45.20;100032.59;5049532;28;20196;-76
2023/07/22 09:07:32;;;;;;;3.45;3.15;;;;;;;25.49;44.77;100036.19;5051554;28;20185;-76
2023/07/22 09:09:58;;;;;;;5.13;3.30;;;;;;;25.55;47.18;100033.66;5049648;28;20585;-77
2023/07/22 09:12:24;;;;;;;5.18;3.10;;;;;;;25.20;49.49;100027.28;5039833;28;20542;-76
2023/07/22 09:14:50;;;;;;;5.20;2.95;;;;;;;25.48;48.70;100030.13;5050333;28;20239;-75
2023/07/22 09:17:16;;;;;;;5.13;2.90;;;;;;;26.19;45.17;100034.78;5050236;28;20189;-77
2023/07/22 09:19:41;;;;;;;5.90;3.10;;;;;;;27.25;43.13;100035.81;5049747;28;20522;-77
2023/07/22 09:22:07;;;;;;;4.88;3.00;;;;;;;28.54;40.26;100027.25;5056415;28;20255;-77
2023/07/22 09:24:33;;;;;;;4.70;3.08;;;;;;;28.89;37.09;100027.88;5050166;28;20192;-76
2023/07/22 09:26:58;;;;;;;5.35;2.70;;;;;;;29.67;36.09;100042.13;5049942;28;20174;-77
2023/07/22 09:29:34;;;;;;;6.97;3.13;;;;;;;29.10;34.60;100031.28;5051076;28;20266;-77
2023/07/22 09:32:00;;;;;;;3.90;2.80;;;;;;;29.25;35.02;100029.22;5042676;28;20315;-76
2023/07/22 09:34:25;;;;;;;4.38;2.80;;;;;;;28.25;37.51;100031.94;5037407;28;20268;-77
2023/07/22 09:36:56;;;;;;;4.43;2.72;;;;;;;28.71;37.04;100033.00;5051298;28;20186;-77
2023/07/22 09:39:22;;;;;;;5.10;3.10;;;;;;;28.69;35.16;100027.06;5049517;28;20223;-76
2023/07/22 09:41:48;;;;;;;12.18;3.30;;;;;;;28.84;35.08;100025.03;5042174;28;20281;-77
2023/07/22 09:44:13;;;;;;;3.85;3.00;;;;;;;29.28;33.55;100020.03;5049144;28;20223;-79
2023/07/22 09:46:39;;;;;;;4.30;3.15;;;;;;;29.32;33.32;100018.63;5051170;28;20177;-76
2023/07/22 09:49:09;;;;;;;3.75;2.95;;;;;;;28.54;35.09;100019.31;5049458;28;20197;-76
2023/07/22 09:51:36;;;;;;;4.47;3.60;;;;;;;28.04;36.22;100012.56;5044827;28;20612;-77
2023/07/22 09:54:03;;;;;;;6.28;3.10;;;;;;;27.59;36.28;100013.03;5052593;28;20232;-76
2023/07/22 09:56:28;;;;;;;8.43;3.47;;;;;;;27.93;37.22;100007.84;5053465;28;20636;-76
2023/07/22 09:58:54;;;;;;;3.70;3.40;;;;;;;27.10;37.29;100021.91;5054631;28;20298;-75
2023/07/22 10:01:26;;;;;;;7.15;3.20;;;;;;;26.80;36.25;100001.84;5035897;28;20232;-75
2023/07/22 10:03:57;;;;;;;5.47;2.85;;;;;;;27.10;36.07;100000.81;5048690;28;20637;-78
2023/07/22 10:06:27;;;;;;;6.07;3.50;;;;;;;28.12;35.78;99995.69;5052930;28;20182;-77
2023/07/22 10:09:07;;;;;;;3.90;2.65;;;;;;;30.29;32.67;99996.50;5054648;28;20228;-76
2023/07/22 10:11:34;;;;;;;5.20;3.20;;;;;;;31.97;28.98;99998.09;5045480;28;20221;-77
2023/07/22 10:14:01;;;;;;;5.20;3.15;;;;;;;32.79;27.94;100003.75;5057904;28;20221;-79
2023/07/22 10:16:27;;;;;;;4.57;2.80;;;;;;;31.55;28.69;100003.38;5053933;28;20181;-78
2023/07/22 10:18:53;;;;;;;4.85;3.03;;;;;;;32.10;27.79;99990.94;5052960;28;20288;-77
2023/07/22 10:21:19;;;;;;;6.30;3.42;;;;;;;33.26;26.24;99992.19;5053932;28;20312;-78
2023/07/22 10:23:45;;;;;;;5.63;3.38;;;;;;;33.37;27.67;99987.88;5059945;28;20666;-77
2023/07/22 10:26:13;;;;;;;3.33;3.03;;;;;;;34.04;26.10;99989.88;5053419;28;20343;-77
2023/07/22 10:28:40;;;;;;;4.47;3.10;;;;;;;33.90;26.65;99986.75;5054392;28;20504;-77
2023/07/22 10:31:06;;;;;;;7.35;3.00;;;;;;;34.72;25.53;99984.50;5045031;28;20236;-77
2023/07/22 10:33:31;;;;;;;5.78;3.03;;;;;;;35.62;24.31;99982.59;5061167;28;20181;-77
2023/07/22 10:36:12;;;;;;;5.60;2.78;;;;;;;34.68;25.78;99993.25;5053376;28;20185;-78
2023/07/22 10:38:38;;;;;;;4.35;2.53;;;;;;;33.53;26.13;99971.13;5052526;28;20203;-77
2023/07/22 10:41:16;;;;;;;3.00;2.65;;;;;;;31.90;28.79;99984.09;5045010;28;20307;-76
2023/07/22 10:43:52;;;;;;;4.85;3.30;;;;;;;30.46;29.15;99970.19;5052456;28;20208;-78
2023/07/22 10:46:18;;;;;;;4.85;3.17;;;;;;;29.79;30.19;99962.72;5052041;28;20184;-76
2023/07/22 10:48:43;;;;;;;3.38;3.08;;;;;;;29.93;30.48;99961.66;5053885;28;20189;-76
2023/07/22 10:51:17;;;;;;;3.33;3.00;;;;;;;27.79;32.88;99960.25;5032978;28;20232;-77
2023/07/22 10:53:50;;;;;;;6.22;3.25;;;;;;;27.30;35.12;99961.28;5047357;28;20178;-77
2023/07/22 10:56:19;;;;;;;3.30;2.85;;;;;;;27.03;35.34;99946.16;5051476;28;20707;-78
2023/07/22 10:58:44;;;;;;;4.78;3.10;;;;;;;26.86;36.07;99950.94;5051936;28;20201;-76
2023/07/22 11:01:27;;;;;;;3.40;3.10;;;;;;;27.01;36.05;99940.25;5041710;28;20250;-77
2023/07/22 11:04:06;;;;;;;5.55;3.15;;;;;;;26.85;36.87;99949.28;5058255;28;20177;-77
2023/07/22 11:06:31;;;;;;;6.35;2.85;;;;;;;26.57;35.82;99950.13;5051414;28;20177;-78
2023/07/22 11:08:57;;;;;;;4.25;2.63;;;;;;;26.96;35.05;99940.03;5053294;28;20188;-76
2023/07/22 11:11:53;;;;;;;9.98;3.45;;;;;;;27.42;34.93;99932.53;5044858;28;20233;-76
2023/07/22 11:14:21;;;;;;;5.80;2.90;;;;;;;27.62;33.90;99937.84;5012024;28;20225;-77
2023/07/22 11:16:47;;;;;;;4.05;3.15;;;;;;;27.66;34.73;99939.06;5004340;28;20230;-77
2023/07/22 11:19:13;;;;;;;6.45;3.35;;;;;;;27.83;34.10;99928.94;5030910;28;20553;-77
2023/07/22 11:21:38;;;;;;;5.65;3.15;;;;;;;27.88;33.63;99921.22;5003781;28;20321;-77
2023/07/22 11:24:06;;;;;;;5.35;3.28;;;;;;;27.89;34.09;99914.13;5030532;28;20194;-77